sensor_id;sensor_type;location;lat;lon;timestamp;P1;durP1;ratioP1;P2;durP2;ratioP2
33279;SDS011;20403;43.114;12.434;2023-06-10T00:00:39;9.82;;;3.67;;
33279;SDS011;20403;43.114;12.434;2023-06-10T00:03:06;15.25;;;4.38;;
33279;SDS011;20403;43.114;12.434;2023-06-10T00:05:32;25.20;;;4.00;;
33279;SDS011;20403;43.114;12.434;2023-06-10T00:07:59;13.57;;;3.53;;
33279;SDS011;20403;43.114;12.434;2023-06-10T00:10:26;12.30;;;4.25;;
33279;SDS011;20403;43.114;12.434;2023-06-10T00:12:52;20.95;;;4.60;;
33279;SDS011;20403;43.114;12.434;2023-06-10T00:15:17;6.85;;;3.63;;
33279;SDS011;20403;43.114;12.434;2023-06-10T00:17:43;12.93;;;4.50;;
33279;SDS011;20403;43.114;12.434;2023-06-10T00:20:09;19.83;;;4.50;;
33279;SDS011;20403;43.114;12.434;2023-06-10T00:22:38;9.02;;;4.25;;
33279;SDS011;20403;43.114;12.434;2023-06-10T00:25:05;9.07;;;4.57;;
33279;SDS011;20403;43.114;12.434;2023-06-10T00:27:31;13.20;;;4.32;;
33279;SDS011;20403;43.114;12.434;2023-06-10T00:30:00;15.57;;;4.68;;
33279;SDS011;20403;43.114;12.434;2023-06-10T00:32:29;8.85;;;4.35;;
33279;SDS011;20403;43.114;12.434;2023-06-10T00:34:54;12.98;;;4.35;;
33279;SDS011;20403;43.114;12.434;2023-06-10T00:37:20;8.23;;;3.63;;
33279;SDS011;20403;43.114;12.434;2023-06-10T00:39:45;15.20;;;4.82;;
33279;SDS011;20403;43.114;12.434;2023-06-10T00:42:11;15.88;;;4.88;;
33279;SDS011;20403;43.114;12.434;2023-06-10T00:44:36;18.13;;;4.38;;
33279;SDS011;20403;43.114;12.434;2023-06-10T00:47:02;11.93;;;4.05;;
33279;SDS011;20403;43.114;12.434;2023-06-10T00:49:28;8.68;;;3.72;;
33279;SDS011;20403;43.114;12.434;2023-06-10T00:51:53;15.50;;;4.57;;
33279;SDS011;20403;43.114;12.434;2023-06-10T00:54:19;7.80;;;3.90;;
33279;SDS011;20403;43.114;12.434;2023-06-10T00:56:45;14.63;;;3.95;;
33279;SDS011;20403;43.114;12.434;2023-06-10T00:59:12;14.02;;;4.70;;
33279;SDS011;20403;43.114;12.434;2023-06-10T01:01:39;19.40;;;4.63;;
33279;SDS011;20403;43.114;12.434;2023-06-10T01:04:06;10.27;;;4.85;;
33279;SDS011;20403;43.114;12.434;2023-06-10T01:09:06;13.93;;;3.85;;
33279;SDS011;20403;43.114;12.434;2023-06-10T01:11:52;10.00;;;4.30;;
33279;SDS011;20403;43.114;12.434;2023-06-10T01:14:39;10.07;;;3.42;;
33279;SDS011;20403;43.114;12.434;2023-06-10T01:17:10;11.93;;;3.88;;
33279;SDS011;20403;43.114;12.434;2023-06-10T01:19:36;18.67;;;4.68;;
33279;SDS011;20403;43.114;12.434;2023-06-10T01:22:02;12.85;;;4.65;;
33279;SDS011;20403;43.114;12.434;2023-06-10T01:24:28;13.85;;;4.15;;
33279;SDS011;20403;43.114;12.434;2023-06-10T01:26:58;15.88;;;4.55;;
33279;SDS011;20403;43.114;12.434;2023-06-10T01:29:37;11.48;;;4.25;;
33279;SDS011;20403;43.114;12.434;2023-06-10T01:34:47;14.20;;;4.53;;
33279;SDS011;20403;43.114;12.434;2023-06-10T01:37:15;12.85;;;3.88;;
33279;SDS011;20403;43.114;12.434;2023-06-10T01:39:43;12.55;;;4.43;;
33279;SDS011;20403;43.114;12.434;2023-06-10T01:42:10;9.23;;;3.97;;
33279;SDS011;20403;43.114;12.434;2023-06-10T01:44:38;15.27;;;4.00;;
33279;SDS011;20403;43.114;12.434;2023-06-10T01:47:04;12.70;;;4.00;;
33279;SDS011;20403;43.114;12.434;2023-06-10T01:49:30;10.50;;;4.13;;
33279;SDS011;20403;43.114;12.434;2023-06-10T01:51:55;15.57;;;4.13;;
33279;SDS011;20403;43.114;12.434;2023-06-10T01:54:20;18.02;;;5.20;;
33279;SDS011;20403;43.114;12.434;2023-06-10T01:56:46;11.93;;;4.30;;
33279;SDS011;20403;43.114;12.434;2023-06-10T01:59:11;7.20;;;3.78;;
33279;SDS011;20403;43.114;12.434;2023-06-10T02:01:36;7.28;;;4.18;;
33279;SDS011;20403;43.114;12.434;2023-06-10T02:04:02;11.07;;;3.70;;
33279;SDS011;20403;43.114;12.434;2023-06-10T02:06:27;11.27;;;3.88;;
33279;SDS011;20403;43.114;12.434;2023-06-10T02:08:53;12.02;;;3.70;;
33279;SDS011;20403;43.114;12.434;2023-06-10T02:11:18;11.80;;;4.43;;
33279;SDS011;20403;43.114;12.434;2023-06-10T02:13:44;10.88;;;4.15;;
33279;SDS011;20403;43.114;12.434;2023-06-10T02:16:09;12.18;;;4.43;;
33279;SDS011;20403;43.114;12.434;2023-06-10T02:18:38;11.77;;;4.32;;
33279;SDS011;20403;43.114;12.434;2023-06-10T02:21:05;11.90;;;4.18;;
33279;SDS011;20403;43.114;12.434;2023-06-10T02:23:31;13.70;;;4.65;;
33279;SDS011;20403;43.114;12.434;2023-06-10T02:25:57;7.97;;;4.28;;
33279;SDS011;20403;43.114;12.434;2023-06-10T02:28:22;16.00;;;5.07;;
33279;SDS011;20403;43.114;12.434;2023-06-10T02:30:48;14.35;;;4.85;;
33279;SDS011;20403;43.114;12.434;2023-06-10T02:33:13;9.98;;;3.92;;
33279;SDS011;20403;43.114;12.434;2023-06-10T02:35:39;16.52;;;3.83;;
33279;SDS011;20403;43.114;12.434;2023-06-10T02:38:04;17.02;;;4.20;;
33279;SDS011;20403;43.114;12.434;2023-06-10T02:40:30;15.85;;;4.43;;
33279;SDS011;20403;43.114;12.434;2023-06-10T02:42:56;15.00;;;3.78;;
33279;SDS011;20403;43.114;12.434;2023-06-10T02:45:22;11.93;;;3.78;;
33279;SDS011;20403;43.114;12.434;2023-06-10T02:47:47;13.80;;;4.22;;
33279;SDS011;20403;43.114;12.434;2023-06-10T02:50:13;17.13;;;4.35;;
33279;SDS011;20403;43.114;12.434;2023-06-10T02:52:38;14.30;;;3.92;;
33279;SDS011;20403;43.114;12.434;2023-06-10T02:55:04;10.13;;;3.63;;
33279;SDS011;20403;43.114;12.434;2023-06-10T02:57:30;13.35;;;3.85;;
33279;SDS011;20403;43.114;12.434;2023-06-10T02:59:55;13.70;;;5.03;;
33279;SDS011;20403;43.114;12.434;2023-06-10T03:02:21;10.80;;;3.63;;
33279;SDS011;20403;43.114;12.434;2023-06-10T03:04:47;12.73;;;3.70;;
33279;SDS011;20403;43.114;12.434;2023-06-10T03:07:12;11.57;;;4.32;;
33279;SDS011;20403;43.114;12.434;2023-06-10T03:09:38;11.70;;;4.18;;
33279;SDS011;20403;43.114;12.434;2023-06-10T03:12:04;13.13;;;4.05;;
33279;SDS011;20403;43.114;12.434;2023-06-10T03:14:31;12.52;;;3.88;;
33279;SDS011;20403;43.114;12.434;2023-06-10T03:16:56;13.35;;;3.97;;
33279;SDS011;20403;43.114;12.434;2023-06-10T03:19:22;11.90;;;4.07;;
33279;SDS011;20403;43.114;12.434;2023-06-10T03:21:49;8.30;;;3.60;;
33279;SDS011;20403;43.114;12.434;2023-06-10T03:24:19;10.93;;;3.53;;
33279;SDS011;20403;43.114;12.434;2023-06-10T03:26:45;11.32;;;3.38;;
33279;SDS011;20403;43.114;12.434;2023-06-10T03:29:11;10.43;;;3.92;;
33279;SDS011;20403;43.114;12.434;2023-06-10T03:31:36;10.93;;;3.80;;
33279;SDS011;20403;43.114;12.434;2023-06-10T03:34:02;10.23;;;4.15;;
33279;SDS011;20403;43.114;12.434;2023-06-10T03:36:27;15.07;;;3.97;;
33279;SDS011;20403;43.114;12.434;2023-06-10T03:38:54;11.30;;;4.75;;
33279;SDS011;20403;43.114;12.434;2023-06-10T03:41:21;9.02;;;4.18;;
33279;SDS011;20403;43.114;12.434;2023-06-10T03:43:47;9.65;;;4.32;;
33279;SDS011;20403;43.114;12.434;2023-06-10T03:46:13;12.73;;;3.90;;
33279;SDS011;20403;43.114;12.434;2023-06-10T03:48:39;21.80;;;4.78;;
33279;SDS011;20403;43.114;12.434;2023-06-10T03:51:04;11.13;;;3.95;;
33279;SDS011;20403;43.114;12.434;2023-06-10T03:53:30;10.25;;;4.05;;
33279;SDS011;20403;43.114;12.434;2023-06-10T03:55:55;14.88;;;4.40;;
33279;SDS011;20403;43.114;12.434;2023-06-10T03:58:22;11.05;;;4.28;;
33279;SDS011;20403;43.114;12.434;2023-06-10T04:00:47;13.20;;;4.20;;
33279;SDS011;20403;43.114;12.434;2023-06-10T04:03:14;8.00;;;4.57;;
33279;SDS011;20403;43.114;12.434;2023-06-10T04:05:40;15.48;;;5.43;;
33279;SDS011;20403;43.114;12.434;2023-06-10T04:08:06;10.30;;;4.38;;
33279;SDS011;20403;43.114;12.434;2023-06-10T04:10:32;13.77;;;4.30;;
33279;SDS011;20403;43.114;12.434;2023-06-10T04:12:58;16.40;;;4.43;;
33279;SDS011;20403;43.114;12.434;2023-06-10T04:15:24;7.93;;;4.18;;
33279;SDS011;20403;43.114;12.434;2023-06-10T04:17:50;11.25;;;4.60;;
33279;SDS011;20403;43.114;12.434;2023-06-10T04:20:15;10.82;;;3.95;;
33279;SDS011;20403;43.114;12.434;2023-06-10T04:22:41;16.08;;;4.15;;
33279;SDS011;20403;43.114;12.434;2023-06-10T04:25:08;12.50;;;5.13;;
33279;SDS011;20403;43.114;12.434;2023-06-10T04:27:34;12.55;;;4.65;;
33279;SDS011;20403;43.114;12.434;2023-06-10T04:29:59;11.25;;;4.40;;
33279;SDS011;20403;43.114;12.434;2023-06-10T04:32:25;7.60;;;4.47;;
33279;SDS011;20403;43.114;12.434;2023-06-10T04:34:51;14.40;;;5.20;;
33279;SDS011;20403;43.114;12.434;2023-06-10T04:37:17;15.95;;;4.90;;
33279;SDS011;20403;43.114;12.434;2023-06-10T04:39:42;22.67;;;5.75;;
33279;SDS011;20403;43.114;12.434;2023-06-10T04:42:07;14.75;;;4.88;;
33279;SDS011;20403;43.114;12.434;2023-06-10T04:44:33;13.13;;;4.95;;
33279;SDS011;20403;43.114;12.434;2023-06-10T04:46:58;18.02;;;5.45;;
33279;SDS011;20403;43.114;12.434;2023-06-10T04:49:23;11.23;;;5.40;;
33279;SDS011;20403;43.114;12.434;2023-06-10T04:51:49;13.60;;;5.45;;
33279;SDS011;20403;43.114;12.434;2023-06-10T04:54:16;13.77;;;5.80;;
33279;SDS011;20403;43.114;12.434;2023-06-10T04:56:41;10.93;;;6.15;;
33279;SDS011;20403;43.114;12.434;2023-06-10T04:59:07;20.80;;;6.32;;
33279;SDS011;20403;43.114;12.434;2023-06-10T05:01:32;16.10;;;5.82;;
33279;SDS011;20403;43.114;12.434;2023-06-10T05:03:58;20.58;;;6.07;;
33279;SDS011;20403;43.114;12.434;2023-06-10T05:06:23;12.07;;;5.05;;
33279;SDS011;20403;43.114;12.434;2023-06-10T05:08:48;15.98;;;5.65;;
33279;SDS011;20403;43.114;12.434;2023-06-10T05:11:14;23.65;;;6.30;;
33279;SDS011;20403;43.114;12.434;2023-06-10T05:13:41;16.88;;;8.10;;
33279;SDS011;20403;43.114;12.434;2023-06-10T05:16:07;15.50;;;6.60;;
33279;SDS011;20403;43.114;12.434;2023-06-10T05:18:33;17.77;;;7.53;;
33279;SDS011;20403;43.114;12.434;2023-06-10T05:20:58;25.70;;;7.00;;
33279;SDS011;20403;43.114;12.434;2023-06-10T05:23:24;10.35;;;7.22;;
33279;SDS011;20403;43.114;12.434;2023-06-10T05:25:49;18.08;;;7.68;;
33279;SDS011;20403;43.114;12.434;2023-06-10T05:28:15;10.48;;;7.07;;
33279;SDS011;20403;43.114;12.434;2023-06-10T05:30:40;14.10;;;7.28;;
33279;SDS011;20403;43.114;12.434;2023-06-10T05:33:05;13.63;;;8.82;;
33279;SDS011;20403;43.114;12.434;2023-06-10T05:35:31;12.73;;;6.25;;
33279;SDS011;20403;43.114;12.434;2023-06-10T05:37:56;11.98;;;6.35;;
33279;SDS011;20403;43.114;12.434;2023-06-10T05:40:22;15.27;;;7.50;;
33279;SDS011;20403;43.114;12.434;2023-06-10T05:42:47;20.95;;;6.28;;
33279;SDS011;20403;43.114;12.434;2023-06-10T05:45:12;12.95;;;6.05;;
33279;SDS011;20403;43.114;12.434;2023-06-10T05:47:38;14.40;;;6.40;;
33279;SDS011;20403;43.114;12.434;2023-06-10T05:50:04;15.43;;;6.93;;
33279;SDS011;20403;43.114;12.434;2023-06-10T05:52:32;24.75;;;8.35;;
33279;SDS011;20403;43.114;12.434;2023-06-10T05:54:58;14.48;;;8.65;;
33279;SDS011;20403;43.114;12.434;2023-06-10T05:57:24;21.10;;;8.75;;
33279;SDS011;20403;43.114;12.434;2023-06-10T05:59:51;13.77;;;6.70;;
33279;SDS011;20403;43.114;12.434;2023-06-10T06:02:16;18.92;;;7.15;;
33279;SDS011;20403;43.114;12.434;2023-06-10T06:04:42;14.98;;;7.85;;
33279;SDS011;20403;43.114;12.434;2023-06-10T06:07:07;17.85;;;7.28;;
33279;SDS011;20403;43.114;12.434;2023-06-10T06:09:32;15.50;;;7.15;;
33279;SDS011;20403;43.114;12.434;2023-06-10T06:11:58;15.35;;;6.97;;
33279;SDS011;20403;43.114;12.434;2023-06-10T06:14:23;15.82;;;7.78;;
33279;SDS011;20403;43.114;12.434;2023-06-10T06:16:49;16.25;;;7.28;;
33279;SDS011;20403;43.114;12.434;2023-06-10T06:19:14;14.77;;;6.78;;
33279;SDS011;20403;43.114;12.434;2023-06-10T06:21:40;22.27;;;8.70;;
33279;SDS011;20403;43.114;12.434;2023-06-10T06:24:06;16.33;;;7.38;;
33279;SDS011;20403;43.114;12.434;2023-06-10T06:26:32;19.70;;;7.65;;
33279;SDS011;20403;43.114;12.434;2023-06-10T06:28:57;16.15;;;7.03;;
33279;SDS011;20403;43.114;12.434;2023-06-10T06:31:22;22.83;;;8.32;;
33279;SDS011;20403;43.114;12.434;2023-06-10T06:33:48;22.98;;;8.90;;
33279;SDS011;20403;43.114;12.434;2023-06-10T06:36:13;14.43;;;7.78;;
33279;SDS011;20403;43.114;12.434;2023-06-10T06:38:38;14.23;;;6.70;;
33279;SDS011;20403;43.114;12.434;2023-06-10T06:41:04;14.10;;;6.65;;
33279;SDS011;20403;43.114;12.434;2023-06-10T06:43:31;17.83;;;8.45;;
33279;SDS011;20403;43.114;12.434;2023-06-10T06:45:57;26.02;;;12.70;;
33279;SDS011;20403;43.114;12.434;2023-06-10T06:48:23;20.90;;;9.55;;
33279;SDS011;20403;43.114;12.434;2023-06-10T06:50:48;16.00;;;7.78;;
33279;SDS011;20403;43.114;12.434;2023-06-10T06:53:14;14.38;;;7.40;;
33279;SDS011;20403;43.114;12.434;2023-06-10T06:55:39;16.48;;;7.30;;
33279;SDS011;20403;43.114;12.434;2023-06-10T06:58:05;10.93;;;7.40;;
33279;SDS011;20403;43.114;12.434;2023-06-10T07:00:30;16.60;;;7.47;;
33279;SDS011;20403;43.114;12.434;2023-06-10T07:02:56;17.27;;;7.68;;
33279;SDS011;20403;43.114;12.434;2023-06-10T07:05:22;17.63;;;7.35;;
33279;SDS011;20403;43.114;12.434;2023-06-10T07:07:50;21.88;;;7.93;;
33279;SDS011;20403;43.114;12.434;2023-06-10T07:10:19;12.40;;;5.65;;
33279;SDS011;20403;43.114;12.434;2023-06-10T07:12:47;14.05;;;7.00;;
33279;SDS011;20403;43.114;12.434;2023-06-10T07:15:12;16.63;;;7.05;;
33279;SDS011;20403;43.114;12.434;2023-06-10T07:17:38;12.27;;;6.72;;
33279;SDS011;20403;43.114;12.434;2023-06-10T07:20:04;19.90;;;7.18;;
33279;SDS011;20403;43.114;12.434;2023-06-10T07:22:30;16.15;;;6.20;;
33279;SDS011;20403;43.114;12.434;2023-06-10T07:24:55;14.60;;;7.07;;
33279;SDS011;20403;43.114;12.434;2023-06-10T07:27:21;12.57;;;6.72;;
33279;SDS011;20403;43.114;12.434;2023-06-10T07:29:46;19.38;;;7.38;;
33279;SDS011;20403;43.114;12.434;2023-06-10T07:32:12;16.95;;;7.35;;
33279;SDS011;20403;43.114;12.434;2023-06-10T07:34:37;15.13;;;6.57;;
33279;SDS011;20403;43.114;12.434;2023-06-10T07:37:02;12.55;;;6.93;;
33279;SDS011;20403;43.114;12.434;2023-06-10T07:39:28;12.45;;;6.30;;
33279;SDS011;20403;43.114;12.434;2023-06-10T07:41:53;12.40;;;5.22;;
33279;SDS011;20403;43.114;12.434;2023-06-10T07:44:21;14.30;;;5.60;;
33279;SDS011;20403;43.114;12.434;2023-06-10T07:46:47;10.20;;;6.25;;
33279;SDS011;20403;43.114;12.434;2023-06-10T07:49:12;15.75;;;6.25;;
33279;SDS011;20403;43.114;12.434;2023-06-10T07:51:38;15.18;;;5.30;;
33279;SDS011;20403;43.114;12.434;2023-06-10T07:54:03;17.30;;;5.50;;
33279;SDS011;20403;43.114;12.434;2023-06-10T07:56:28;17.55;;;6.18;;
33279;SDS011;20403;43.114;12.434;2023-06-10T07:58:54;17.08;;;5.07;;
33279;SDS011;20403;43.114;12.434;2023-06-10T08:01:19;13.73;;;5.50;;
33279;SDS011;20403;43.114;12.434;2023-06-10T08:03:44;16.48;;;6.35;;
33279;SDS011;20403;43.114;12.434;2023-06-10T08:06:10;11.07;;;5.55;;
33279;SDS011;20403;43.114;12.434;2023-06-10T08:08:36;14.57;;;5.40;;
33279;SDS011;20403;43.114;12.434;2023-06-10T08:11:07;15.80;;;5.30;;
33279;SDS011;20403;43.114;12.434;2023-06-10T08:13:32;10.82;;;4.68;;
33279;SDS011;20403;43.114;12.434;2023-06-10T08:15:58;11.75;;;4.28;;
33279;SDS011;20403;43.114;12.434;2023-06-10T08:18:23;16.23;;;4.57;;
33279;SDS011;20403;43.114;12.434;2023-06-10T08:20:48;14.18;;;4.60;;
33279;SDS011;20403;43.114;12.434;2023-06-10T08:23:14;13.45;;;5.13;;
33279;SDS011;20403;43.114;12.434;2023-06-10T08:25:39;13.25;;;4.95;;
33279;SDS011;20403;43.114;12.434;2023-06-10T08:28:05;10.93;;;4.18;;
33279;SDS011;20403;43.114;12.434;2023-06-10T08:30:30;10.90;;;4.25;;
33279;SDS011;20403;43.114;12.434;2023-06-10T08:32:56;13.77;;;4.07;;
33279;SDS011;20403;43.114;12.434;2023-06-10T08:35:21;9.02;;;4.03;;
33279;SDS011;20403;43.114;12.434;2023-06-10T08:37:47;11.68;;;4.13;;
33279;SDS011;20403;43.114;12.434;2023-06-10T08:40:12;9.93;;;3.45;;
33279;SDS011;20403;43.114;12.434;2023-06-10T08:45:18;10.20;;;3.25;;
33279;SDS011;20403;43.114;12.434;2023-06-10T08:47:46;15.13;;;4.70;;
33279;SDS011;20403;43.114;12.434;2023-06-10T08:50:16;13.32;;;4.32;;
33279;SDS011;20403;43.114;12.434;2023-06-10T08:52:43;10.13;;;3.70;;
33279;SDS011;20403;43.114;12.434;2023-06-10T08:55:15;13.25;;;3.92;;
33279;SDS011;20403;43.114;12.434;2023-06-10T08:57:50;11.52;;;4.38;;
33279;SDS011;20403;43.114;12.434;2023-06-10T09:00:16;14.38;;;4.57;;
33279;SDS011;20403;43.114;12.434;2023-06-10T09:02:42;8.95;;;3.60;;
33279;SDS011;20403;43.114;12.434;2023-06-10T09:05:08;18.48;;;4.40;;
33279;SDS011;20403;43.114;12.434;2023-06-10T09:07:34;14.45;;;4.40;;
33279;SDS011;20403;43.114;12.434;2023-06-10T09:10:01;12.88;;;3.67;;
33279;SDS011;20403;43.114;12.434;2023-06-10T09:14:58;13.23;;;3.65;;
33279;SDS011;20403;43.114;12.434;2023-06-10T09:17:24;11.48;;;3.55;;
33279;SDS011;20403;43.114;12.434;2023-06-10T09:19:49;12.95;;;4.53;;
33279;SDS011;20403;43.114;12.434;2023-06-10T09:22:18;10.15;;;3.53;;
33279;SDS011;20403;43.114;12.434;2023-06-10T09:24:44;12.77;;;4.25;;
33279;SDS011;20403;43.114;12.434;2023-06-10T09:27:11;11.38;;;3.50;;
33279;SDS011;20403;43.114;12.434;2023-06-10T09:29:52;13.13;;;3.92;;
33279;SDS011;20403;43.114;12.434;2023-06-10T09:32:19;10.05;;;3.78;;
33279;SDS011;20403;43.114;12.434;2023-06-10T09:34:45;13.32;;;3.75;;
33279;SDS011;20403;43.114;12.434;2023-06-10T09:37:11;14.88;;;3.90;;
33279;SDS011;20403;43.114;12.434;2023-06-10T09:39:38;13.80;;;3.70;;
33279;SDS011;20403;43.114;12.434;2023-06-10T09:42:26;9.48;;;3.42;;
33279;SDS011;20403;43.114;12.434;2023-06-10T09:44:51;15.18;;;4.43;;
33279;SDS011;20403;43.114;12.434;2023-06-10T09:47:20;15.23;;;3.80;;
33279;SDS011;20403;43.114;12.434;2023-06-10T09:49:47;10.82;;;4.20;;
33279;SDS011;20403;43.114;12.434;2023-06-10T09:52:13;12.63;;;3.45;;
33279;SDS011;20403;43.114;12.434;2023-06-10T09:54:38;10.48;;;3.88;;
33279;SDS011;20403;43.114;12.434;2023-06-10T09:57:07;11.95;;;3.47;;
33279;SDS011;20403;43.114;12.434;2023-06-10T09:59:33;8.73;;;3.00;;
33279;SDS011;20403;43.114;12.434;2023-06-10T10:01:59;12.40;;;3.10;;
33279;SDS011;20403;43.114;12.434;2023-06-10T10:04:25;10.80;;;3.30;;
33279;SDS011;20403;43.114;12.434;2023-06-10T10:06:53;18.45;;;3.30;;
33279;SDS011;20403;43.114;12.434;2023-06-10T10:09:18;10.80;;;3.17;;
33279;SDS011;20403;43.114;12.434;2023-06-10T10:11:44;7.90;;;4.03;;
33279;SDS011;20403;43.114;12.434;2023-06-10T10:14:10;6.90;;;3.50;;
33279;SDS011;20403;43.114;12.434;2023-06-10T10:16:37;12.57;;;3.55;;
33279;SDS011;20403;43.114;12.434;2023-06-10T10:19:25;9.18;;;3.13;;
33279;SDS011;20403;43.114;12.434;2023-06-10T10:21:54;14.27;;;3.38;;
33279;SDS011;20403;43.114;12.434;2023-06-10T10:24:31;8.90;;;3.47;;
33279;SDS011;20403;43.114;12.434;2023-06-10T10:27:01;8.00;;;3.17;;
33279;SDS011;20403;43.114;12.434;2023-06-10T10:29:31;14.15;;;4.00;;
33279;SDS011;20403;43.114;12.434;2023-06-10T10:34:30;16.30;;;3.10;;
33279;SDS011;20403;43.114;12.434;2023-06-10T10:37:02;11.25;;;3.67;;
33279;SDS011;20403;43.114;12.434;2023-06-10T10:39:29;10.68;;;3.83;;
33279;SDS011;20403;43.114;12.434;2023-06-10T10:41:56;13.05;;;3.30;;
33279;SDS011;20403;43.114;12.434;2023-06-10T10:44:22;8.30;;;3.08;;
33279;SDS011;20403;43.114;12.434;2023-06-10T10:46:49;7.85;;;2.92;;
33279;SDS011;20403;43.114;12.434;2023-06-10T10:49:16;10.05;;;3.42;;
33279;SDS011;20403;43.114;12.434;2023-06-10T10:51:55;9.20;;;3.08;;
33279;SDS011;20403;43.114;12.434;2023-06-10T10:54:32;14.07;;;3.40;;
33279;SDS011;20403;43.114;12.434;2023-06-10T10:59:45;8.45;;;2.80;;
33279;SDS011;20403;43.114;12.434;2023-06-10T11:02:14;11.70;;;2.75;;
33279;SDS011;20403;43.114;12.434;2023-06-10T11:04:51;11.48;;;3.20;;
33279;SDS011;20403;43.114;12.434;2023-06-10T11:07:19;13.23;;;3.72;;
33279;SDS011;20403;43.114;12.434;2023-06-10T11:10:08;12.23;;;3.50;;
33279;SDS011;20403;43.114;12.434;2023-06-10T11:15:11;13.93;;;3.25;;
33279;SDS011;20403;43.114;12.434;2023-06-10T11:17:37;6.35;;;2.58;;
33279;SDS011;20403;43.114;12.434;2023-06-10T11:20:45;11.68;;;3.15;;
33279;SDS011;20403;43.114;12.434;2023-06-10T11:31:18;8.40;;;2.70;;
33279;SDS011;20403;43.114;12.434;2023-06-10T11:33:46;9.55;;;2.65;;
33279;SDS011;20403;43.114;12.434;2023-06-10T11:36:12;7.68;;;2.85;;
33279;SDS011;20403;43.114;12.434;2023-06-10T11:38:37;12.52;;;3.30;;
33279;SDS011;20403;43.114;12.434;2023-06-10T11:41:03;8.20;;;2.38;;
33279;SDS011;20403;43.114;12.434;2023-06-10T11:43:29;8.70;;;2.75;;
33279;SDS011;20403;43.114;12.434;2023-06-10T11:45:55;6.15;;;2.20;;
33279;SDS011;20403;43.114;12.434;2023-06-10T11:48:21;15.00;;;3.20;;
33279;SDS011;20403;43.114;12.434;2023-06-10T11:50:47;7.07;;;3.20;;
33279;SDS011;20403;43.114;12.434;2023-06-10T11:53:12;12.48;;;2.72;;
33279;SDS011;20403;43.114;12.434;2023-06-10T11:58:11;12.80;;;2.88;;
33279;SDS011;20403;43.114;12.434;2023-06-10T12:00:50;6.75;;;2.38;;
33279;SDS011;20403;43.114;12.434;2023-06-10T12:03:21;9.80;;;2.60;;
33279;SDS011;20403;43.114;12.434;2023-06-10T12:08:29;7.50;;;2.20;;
33279;SDS011;20403;43.114;12.434;2023-06-10T12:10:55;5.60;;;2.17;;
33279;SDS011;20403;43.114;12.434;2023-06-10T12:13:22;8.95;;;2.10;;
33279;SDS011;20403;43.114;12.434;2023-06-10T12:15:49;10.05;;;2.55;;
33279;SDS011;20403;43.114;12.434;2023-06-10T12:18:18;14.75;;;2.95;;
33279;SDS011;20403;43.114;12.434;2023-06-10T12:20:48;7.03;;;2.20;;
33279;SDS011;20403;43.114;12.434;2023-06-10T12:23:14;6.80;;;2.17;;
33279;SDS011;20403;43.114;12.434;2023-06-10T12:25:49;9.80;;;2.25;;
33279;SDS011;20403;43.114;12.434;2023-06-10T12:28:24;6.78;;;1.90;;
33279;SDS011;20403;43.114;12.434;2023-06-10T12:30:51;8.00;;;2.45;;
33279;SDS011;20403;43.114;12.434;2023-06-10T12:33:17;8.65;;;2.17;;
33279;SDS011;20403;43.114;12.434;2023-06-10T12:35:52;6.60;;;2.28;;
33279;SDS011;20403;43.114;12.434;2023-06-10T12:38:21;5.10;;;2.03;;
33279;SDS011;20403;43.114;12.434;2023-06-10T12:40:49;7.20;;;2.30;;
33279;SDS011;20403;43.114;12.434;2023-06-10T12:43:19;9.00;;;2.72;;
33279;SDS011;20403;43.114;12.434;2023-06-10T12:45:45;7.68;;;2.17;;
33279;SDS011;20403;43.114;12.434;2023-06-10T12:48:11;10.57;;;2.40;;
33279;SDS011;20403;43.114;12.434;2023-06-10T12:50:42;9.70;;;1.83;;
33279;SDS011;20403;43.114;12.434;2023-06-10T12:53:09;9.10;;;2.40;;
33279;SDS011;20403;43.114;12.434;2023-06-10T12:55:39;9.30;;;2.50;;
33279;SDS011;20403;43.114;12.434;2023-06-10T12:58:04;5.55;;;2.30;;
33279;SDS011;20403;43.114;12.434;2023-06-10T13:00:30;5.15;;;2.00;;
33279;SDS011;20403;43.114;12.434;2023-06-10T13:02:56;7.90;;;2.28;;
33279;SDS011;20403;43.114;12.434;2023-06-10T13:05:22;10.85;;;2.50;;
33279;SDS011;20403;43.114;12.434;2023-06-10T13:07:48;8.50;;;2.53;;
33279;SDS011;20403;43.114;12.434;2023-06-10T13:10:13;6.72;;;2.40;;
33279;SDS011;20403;43.114;12.434;2023-06-10T13:12:40;10.63;;;2.22;;
33279;SDS011;20403;43.114;12.434;2023-06-10T13:15:05;11.27;;;2.13;;
33279;SDS011;20403;43.114;12.434;2023-06-10T13:17:31;11.52;;;2.30;;
33279;SDS011;20403;43.114;12.434;2023-06-10T13:19:59;10.07;;;2.28;;
33279;SDS011;20403;43.114;12.434;2023-06-10T13:22:24;5.40;;;1.83;;
33279;SDS011;20403;43.114;12.434;2023-06-10T13:24:51;8.02;;;2.33;;
33279;SDS011;20403;43.114;12.434;2023-06-10T13:27:17;9.32;;;2.50;;
33279;SDS011;20403;43.114;12.434;2023-06-10T13:29:42;10.18;;;2.50;;
33279;SDS011;20403;43.114;12.434;2023-06-10T13:32:08;14.57;;;2.92;;
33279;SDS011;20403;43.114;12.434;2023-06-10T13:34:33;8.57;;;2.63;;
33279;SDS011;20403;43.114;12.434;2023-06-10T13:36:58;16.42;;;3.05;;
33279;SDS011;20403;43.114;12.434;2023-06-10T13:39:24;7.93;;;2.30;;
33279;SDS011;20403;43.114;12.434;2023-06-10T13:41:49;7.80;;;2.88;;
33279;SDS011;20403;43.114;12.434;2023-06-10T13:44:15;7.18;;;2.60;;
33279;SDS011;20403;43.114;12.434;2023-06-10T13:46:40;4.82;;;2.30;;
33279;SDS011;20403;43.114;12.434;2023-06-10T13:49:05;11.60;;;3.03;;
33279;SDS011;20403;43.114;12.434;2023-06-10T13:51:31;8.20;;;2.30;;
33279;SDS011;20403;43.114;12.434;2023-06-10T13:53:56;10.43;;;2.70;;
33279;SDS011;20403;43.114;12.434;2023-06-10T13:56:22;6.75;;;2.47;;
33279;SDS011;20403;43.114;12.434;2023-06-10T13:58:48;8.10;;;2.28;;
33279;SDS011;20403;43.114;12.434;2023-06-10T14:01:13;5.80;;;2.50;;
33279;SDS011;20403;43.114;12.434;2023-06-10T14:03:38;6.00;;;2.30;;
33279;SDS011;20403;43.114;12.434;2023-06-10T14:06:04;8.88;;;2.83;;
33279;SDS011;20403;43.114;12.434;2023-06-10T14:08:29;12.35;;;2.55;;
33279;SDS011;20403;43.114;12.434;2023-06-10T14:10:55;7.45;;;2.63;;
33279;SDS011;20403;43.114;12.434;2023-06-10T14:13:20;6.38;;;2.38;;
33279;SDS011;20403;43.114;12.434;2023-06-10T14:15:45;13.02;;;2.83;;
33279;SDS011;20403;43.114;12.434;2023-06-10T14:18:11;8.02;;;2.30;;
33279;SDS011;20403;43.114;12.434;2023-06-10T14:20:37;6.47;;;2.58;;
33279;SDS011;20403;43.114;12.434;2023-06-10T14:23:02;10.20;;;2.75;;
33279;SDS011;20403;43.114;12.434;2023-06-10T14:25:27;9.35;;;2.50;;
33279;SDS011;20403;43.114;12.434;2023-06-10T14:27:53;10.45;;;2.72;;
33279;SDS011;20403;43.114;12.434;2023-06-10T14:30:18;8.63;;;2.67;;
33279;SDS011;20403;43.114;12.434;2023-06-10T14:32:44;7.82;;;2.92;;
33279;SDS011;20403;43.114;12.434;2023-06-10T14:35:10;9.10;;;3.35;;
33279;SDS011;20403;43.114;12.434;2023-06-10T14:37:35;10.15;;;3.40;;
33279;SDS011;20403;43.114;12.434;2023-06-10T14:40:01;8.77;;;3.05;;
33279;SDS011;20403;43.114;12.434;2023-06-10T14:42:28;12.63;;;3.67;;
33279;SDS011;20403;43.114;12.434;2023-06-10T14:44:53;11.57;;;3.38;;
33279;SDS011;20403;43.114;12.434;2023-06-10T14:47:18;16.08;;;4.32;;
33279;SDS011;20403;43.114;12.434;2023-06-10T14:49:44;15.52;;;4.82;;
33279;SDS011;20403;43.114;12.434;2023-06-10T14:52:09;51.90;;;8.38;;
33279;SDS011;20403;43.114;12.434;2023-06-10T14:54:35;21.08;;;4.53;;